Accueil
METAR-TAF:

METAR-TAF

Aéroports :

Plate-forme pétrolière

Euro, Pays-Bas

latitude: 51-59-52N, longitude: 3-16-30E, altitude: 18 m

Observation

Le bulletin a été fait il y a 11 minutes, à 17:25 UTC
Vent 20 kt de sud
Température 18°C
Humidité 56%
Pression 1016 hPa
Visibilité 10 km ou plus

METAR: EHSA 281725Z AUTO 18020KT 9999 ///////// 18/09 Q1016 W18/H12

Heure: 19:36 (17:36 UTC)


TAF: absent

Observations et prévisions météorologiques de plus de 4000 aéroports (messages METAR et TAF).

Les stations disponibles sont représentées par des disques jaunes et rouges sur la carte.

Passer la souris dessus pour voir le nom de la station.

Cliquer dessus pour voir les observations et prévisions météorologiques.

Pour changer de carte: cliquez sur les boutons verts avec une croix noire pour zoomer, sur le bouton vert avec un tiret pour effectuer un zoom arrière, ou sur les flèches vertes pour les cartes adjacentes.


METAR-TAF: